createdAt,value
2023-04-10T00:00:38.258Z,17.13
2023-04-10T00:03:06.144Z,17.50
2023-04-10T00:05:33.314Z,17.10
2023-04-10T00:08:00.404Z,18.65
2023-04-10T00:10:29.401Z,16.52
2023-04-10T00:12:56.479Z,16.08
2023-04-10T00:15:23.659Z,17.95
2023-04-10T00:17:55.068Z,17.70
2023-04-10T00:20:23.740Z,18.73
2023-04-10T00:22:50.776Z,20.55
2023-04-10T00:25:18.063Z,15.93
2023-04-10T00:27:45.015Z,18.23
2023-04-10T00:30:12.134Z,16.30
2023-04-10T00:32:39.076Z,15.45
2023-04-10T00:35:08.447Z,23.73
2023-04-10T00:37:35.816Z,15.68
2023-04-10T00:40:03.294Z,18.27
2023-04-10T00:42:30.331Z,19.65
2023-04-10T00:44:57.229Z,18.77
2023-04-10T00:47:24.792Z,17.75
2023-04-10T00:49:52.302Z,19.17
2023-04-10T00:52:20.189Z,19.50
2023-04-10T00:54:47.379Z,20.27
2023-04-10T00:57:14.286Z,17.85
2023-04-10T00:59:41.616Z,18.13
2023-04-10T01:02:08.623Z,19.35
2023-04-10T01:04:36.307Z,19.60
2023-04-10T01:07:49.388Z,18.10
2023-04-10T01:10:42.829Z,16.52
2023-04-10T01:16:26.733Z,18.65
2023-04-10T01:19:25.667Z,19.13
2023-04-10T01:21:56.057Z,20.58
2023-04-10T01:25:17.061Z,15.82
2023-04-10T01:28:30.389Z,19.30
2023-04-10T01:31:03.279Z,15.32
2023-04-10T01:36:28.045Z,14.23
2023-04-10T01:38:57.889Z,13.85
2023-04-10T01:41:26.878Z,16.02
2023-04-10T01:43:55.774Z,14.88
2023-04-10T01:46:24.865Z,13.38
2023-04-10T01:48:54.621Z,16.00
2023-04-10T01:51:23.729Z,15.27
2023-04-10T01:53:52.989Z,15.15
2023-04-10T01:56:20.543Z,14.15
2023-04-10T01:58:47.813Z,15.35
2023-04-10T02:01:29.605Z,17.50
2023-04-10T02:03:59.142Z,19.42
2023-04-10T02:06:51.318Z,19.45
2023-04-10T02:09:28.768Z,19.45
2023-04-10T02:12:04.470Z,17.90
2023-04-10T02:14:36.364Z,20.13
2023-04-10T02:17:04.176Z,17.33
2023-04-10T02:19:33.263Z,14.77
2023-04-10T02:22:00.537Z,19.25
2023-04-10T02:24:28.786Z,15.32
2023-04-10T02:26:56.494Z,18.98
2023-04-10T02:29:23.397Z,19.65
2023-04-10T02:31:50.777Z,20.58
2023-04-10T02:34:17.634Z,25.52
2023-04-10T02:36:44.551Z,21.70
2023-04-10T02:39:11.425Z,25.23
2023-04-10T02:41:38.279Z,23.33
2023-04-10T02:44:06.572Z,24.42
2023-04-10T02:46:33.566Z,23.48
2023-04-10T02:49:01.254Z,21.05
2023-04-10T02:51:28.176Z,23.38
2023-04-10T02:53:55.393Z,22.58
2023-04-10T02:56:22.419Z,25.60
2023-04-10T02:58:49.366Z,30.85
2023-04-10T03:01:16.266Z,27.25
2023-04-10T03:03:43.267Z,22.42
2023-04-10T03:06:11.101Z,21.77
2023-04-10T03:08:38.018Z,23.92
2023-04-10T03:11:05.510Z,24.98
2023-04-10T03:13:32.404Z,22.67
2023-04-10T03:15:59.311Z,21.83
2023-04-10T03:18:26.292Z,27.38
2023-04-10T03:20:53.225Z,30.70
2023-04-10T03:23:20.641Z,17.98
2023-04-10T03:25:53.781Z,21.80
2023-04-10T03:28:22.110Z,19.73
2023-04-10T03:30:51.997Z,19.35
2023-04-10T03:33:18.907Z,20.13
2023-04-10T03:35:46.743Z,21.05
2023-04-10T03:38:13.874Z,18.58
2023-04-10T03:40:40.880Z,18.25
2023-04-10T03:43:07.867Z,18.63
2023-04-10T03:45:34.799Z,17.40
2023-04-10T03:48:01.849Z,16.70
2023-04-10T03:50:28.887Z,14.35
2023-04-10T03:52:56.043Z,14.52
2023-04-10T03:55:23.013Z,15.93
2023-04-10T03:57:50.192Z,18.73
2023-04-10T04:00:17.730Z,19.92
2023-04-10T04:02:45.082Z,15.68
2023-04-10T04:05:12.430Z,18.70
2023-04-10T04:07:39.360Z,17.77
2023-04-10T04:10:06.953Z,16.10
2023-04-10T04:12:33.852Z,17.85
2023-04-10T04:15:00.737Z,14.60
2023-04-10T04:17:27.773Z,16.88
2023-04-10T04:19:54.691Z,19.42
2023-04-10T04:22:21.683Z,27.90
2023-04-10T04:24:48.571Z,22.77
2023-04-10T04:27:15.505Z,20.88
2023-04-10T04:29:42.419Z,26.33
2023-04-10T04:32:09.364Z,26.90
2023-04-10T04:34:36.341Z,23.52
2023-04-10T04:50:11.049Z,17.50
2023-04-10T04:52:38.170Z,19.95
2023-04-10T04:55:05.770Z,19.25
2023-04-10T04:57:32.798Z,24.27
2023-04-10T04:59:59.851Z,22.88
2023-04-10T05:02:27.044Z,21.95
2023-04-10T05:04:54.372Z,18.40
2023-04-10T05:07:21.402Z,19.27
2023-04-10T05:09:48.421Z,19.95
2023-04-10T05:12:15.587Z,18.45
2023-04-10T05:14:42.874Z,22.27
2023-04-10T05:17:09.911Z,21.85
2023-04-10T05:19:37.180Z,22.25
2023-04-10T05:22:04.222Z,31.15
2023-04-10T05:24:32.146Z,22.52
2023-04-10T05:26:59.234Z,19.70
2023-04-10T05:29:26.800Z,21.35
2023-04-10T05:31:54.069Z,20.45
2023-04-10T05:34:21.198Z,21.25
2023-04-10T05:36:48.476Z,21.08
2023-04-10T05:39:15.865Z,24.65
2023-04-10T05:41:43.016Z,25.02
2023-04-10T05:44:10.265Z,21.48
2023-04-10T05:46:37.433Z,19.63
2023-04-10T05:49:04.712Z,17.45
2023-04-10T05:51:32.097Z,19.23
2023-04-10T05:53:59.123Z,18.20
2023-04-10T05:56:26.727Z,20.95
2023-04-10T05:58:54.032Z,17.88
2023-04-10T06:01:21.406Z,18.83
2023-04-10T06:03:48.825Z,19.45
2023-04-10T06:06:16.657Z,22.80
2023-04-10T06:08:44.085Z,20.90
2023-04-10T06:11:14.569Z,18.15
2023-04-10T06:13:41.776Z,18.35
2023-04-10T06:16:09.608Z,16.58
2023-04-10T06:18:38.203Z,18.08
2023-04-10T06:21:05.822Z,16.00
2023-04-10T06:23:33.109Z,15.95
2023-04-10T06:26:01.484Z,18.35
2023-04-10T06:28:28.664Z,22.30
2023-04-10T06:30:56.076Z,21.65
2023-04-10T06:33:26.167Z,15.10
2023-04-10T06:35:53.421Z,26.40
2023-04-10T06:38:20.515Z,20.90
2023-04-10T06:40:47.901Z,25.30
2023-04-10T06:43:14.976Z,18.95
2023-04-10T06:45:42.094Z,21.65
2023-04-10T06:48:09.140Z,17.30
2023-04-10T06:50:36.498Z,15.07
2023-04-10T06:53:03.553Z,15.90
2023-04-10T06:55:30.840Z,16.40
2023-04-10T06:57:57.904Z,13.25
2023-04-10T07:00:25.689Z,15.63
2023-04-10T07:02:53.021Z,13.32
2023-04-10T07:05:20.123Z,15.77
2023-04-10T07:07:47.722Z,14.05
2023-04-10T07:10:14.857Z,21.25
2023-04-10T07:12:41.970Z,16.73
2023-04-10T07:15:09.852Z,16.38
2023-04-10T07:17:36.932Z,12.73
2023-04-10T07:20:04.896Z,13.95
2023-04-10T07:22:32.937Z,15.27
2023-04-10T07:25:00.324Z,17.30
2023-04-10T07:27:28.068Z,11.65
2023-04-10T07:29:56.976Z,10.30
2023-04-10T07:32:25.039Z,10.57
2023-04-10T07:34:52.495Z,11.38
2023-04-10T07:37:19.527Z,12.52
2023-04-10T07:39:47.406Z,10.40
2023-04-10T07:42:14.599Z,14.30
2023-04-10T07:44:41.802Z,11.57
2023-04-10T07:47:08.898Z,12.23
2023-04-10T07:49:36.108Z,10.05
2023-04-10T07:52:03.229Z,10.05
2023-04-10T07:54:34.251Z,11.38
2023-04-10T07:57:01.374Z,11.20
2023-04-10T07:59:28.959Z,13.13
2023-04-10T08:01:56.346Z,10.90
2023-04-10T08:04:23.808Z,11.00
2023-04-10T08:06:51.084Z,11.18
2023-04-10T08:09:18.224Z,12.98
2023-04-10T08:11:45.261Z,10.73
2023-04-10T08:14:13.605Z,13.60
2023-04-10T08:16:45.731Z,12.50
2023-04-10T08:19:12.786Z,12.18
2023-04-10T08:21:40.018Z,12.60
2023-04-10T08:24:07.589Z,14.20
2023-04-10T08:26:34.816Z,11.77
2023-04-10T08:29:02.068Z,12.82
2023-04-10T08:31:30.037Z,13.35
2023-04-10T08:33:58.144Z,12.75
2023-04-10T08:36:27.356Z,10.45
2023-04-10T08:38:54.766Z,13.70
2023-04-10T08:41:21.852Z,12.65
2023-04-10T08:43:50.171Z,12.13
2023-04-10T08:46:17.612Z,12.38
2023-04-10T08:49:05.655Z,13.73
2023-04-10T08:51:42.960Z,14.35
2023-04-10T08:54:26.058Z,10.15
2023-04-10T08:57:00.830Z,9.57
2023-04-10T08:59:31.544Z,13.75
2023-04-10T09:01:59.981Z,10.25
2023-04-10T09:04:27.726Z,13.57
2023-04-10T09:06:54.875Z,9.68
2023-04-10T09:09:21.847Z,9.73
2023-04-10T09:12:01.225Z,10.88
2023-04-10T09:14:34.655Z,11.10
2023-04-10T09:17:22.178Z,11.23
2023-04-10T09:19:56.704Z,10.77
2023-04-10T09:22:39.172Z,11.52
2023-04-10T09:25:07.341Z,18.03
2023-04-10T09:27:37.492Z,12.57
2023-04-10T09:30:07.295Z,12.60
2023-04-10T09:32:42.539Z,14.30
2023-04-10T09:35:13.553Z,10.80
2023-04-10T09:37:44.091Z,21.38
2023-04-10T09:40:24.792Z,10.55
2023-04-10T09:42:53.755Z,9.30
2023-04-10T09:45:22.639Z,8.55
2023-04-10T09:48:08.657Z,10.00
2023-04-10T09:50:41.184Z,11.70
2023-04-10T09:53:17.324Z,10.35
2023-04-10T09:55:44.778Z,11.63
2023-04-10T09:58:13.133Z,17.67
2023-04-10T10:00:43.874Z,10.32
2023-04-10T10:03:14.878Z,10.02
2023-04-10T10:05:49.424Z,9.80
2023-04-10T10:08:17.809Z,11.63
2023-04-10T10:11:10.170Z,10.07
2023-04-10T10:13:54.924Z,9.02
2023-04-10T10:16:45.380Z,10.52
2023-04-10T10:19:31.545Z,11.57
2023-04-10T10:22:02.388Z,25.63
2023-04-10T10:24:33.997Z,9.40
2023-04-10T10:27:02.890Z,12.18
2023-04-10T10:29:32.915Z,9.55
2023-04-10T10:32:04.056Z,15.35
2023-04-10T10:34:32.026Z,12.93
2023-04-10T10:37:00.252Z,10.18
2023-04-10T10:40:02.260Z,11.82
2023-04-10T10:42:49.509Z,9.18
2023-04-10T10:45:24.034Z,9.88
2023-04-10T10:47:55.467Z,9.07
2023-04-10T10:50:24.261Z,8.68
2023-04-10T10:52:57.767Z,8.40
2023-04-10T10:55:24.903Z,10.15
2023-04-10T10:57:54.387Z,9.73
2023-04-10T11:00:24.156Z,9.75
2023-04-10T11:03:10.972Z,11.25
2023-04-10T11:06:02.837Z,22.33
2023-04-10T11:08:33.301Z,11.40
2023-04-10T11:11:07.763Z,9.10
2023-04-10T11:13:37.298Z,10.18
2023-04-10T11:16:07.177Z,11.82
2023-04-10T11:18:48.219Z,10.60
2023-04-10T11:21:22.112Z,11.40
2023-04-10T11:23:54.226Z,9.88
2023-04-10T11:26:41.699Z,11.50
2023-04-10T11:29:17.605Z,10.52
2023-04-10T11:32:00.993Z,10.43
2023-04-10T11:34:31.134Z,10.40
2023-04-10T11:36:58.397Z,9.60
2023-04-10T11:39:27.905Z,15.35
2023-04-10T11:41:58.346Z,10.90
2023-04-10T11:44:32.117Z,10.63
2023-04-10T11:46:59.738Z,12.40
2023-04-10T11:49:31.986Z,10.75
2023-04-10T11:51:59.655Z,10.87
2023-04-10T11:54:29.128Z,10.57
2023-04-10T11:57:12.048Z,12.25
2023-04-10T11:59:40.544Z,12.27
2023-04-10T12:02:16.629Z,10.73
2023-04-10T12:04:44.886Z,12.15
2023-04-10T12:07:12.255Z,8.65
2023-04-10T12:09:39.844Z,9.63
2023-04-10T12:12:08.998Z,9.50
2023-04-10T12:14:42.499Z,10.35
2023-04-10T12:17:12.994Z,9.90
2023-04-10T12:19:41.647Z,14.43
2023-04-10T12:22:12.953Z,8.88
2023-04-10T12:24:51.785Z,8.63
2023-04-10T12:27:22.033Z,13.57
2023-04-10T12:29:52.616Z,12.73
2023-04-10T12:32:21.198Z,11.75
2023-04-10T12:34:59.139Z,10.52
2023-04-10T12:37:49.629Z,10.57
2023-04-10T12:40:17.266Z,10.23
2023-04-10T12:42:44.744Z,16.88
2023-04-10T12:45:14.310Z,12.88
2023-04-10T12:47:52.669Z,12.23
2023-04-10T12:50:24.511Z,11.10
2023-04-10T12:53:07.665Z,9.13
2023-04-10T12:55:34.828Z,11.85
2023-04-10T12:58:18.190Z,9.40
2023-04-10T13:00:45.625Z,12.32
2023-04-10T13:03:13.097Z,11.38
2023-04-10T13:05:40.714Z,7.72
2023-04-10T13:08:07.877Z,11.18
2023-04-10T13:10:38.160Z,9.23
2023-04-10T13:13:07.206Z,11.45
2023-04-10T13:15:34.930Z,9.40
2023-04-10T13:18:04.427Z,12.38
2023-04-10T13:20:40.543Z,10.18
2023-04-10T13:23:08.632Z,11.07
2023-04-10T13:25:40.149Z,7.35
2023-04-10T13:28:11.652Z,11.98
2023-04-10T13:30:41.683Z,10.27
2023-04-10T13:33:10.595Z,14.23
2023-04-10T13:35:40.549Z,15.38
2023-04-10T13:38:09.531Z,9.80
2023-04-10T13:40:36.788Z,17.52
2023-04-10T13:43:04.138Z,11.38
2023-04-10T13:45:31.312Z,25.33
2023-04-10T13:47:58.496Z,11.07
2023-04-10T13:50:25.717Z,10.85
2023-04-10T13:52:53.865Z,10.10
2023-04-10T13:55:21.030Z,11.50
2023-04-10T13:57:48.141Z,11.20
2023-04-10T14:00:15.913Z,12.85
2023-04-10T14:02:43.272Z,7.63
2023-04-10T14:05:11.036Z,10.95
2023-04-10T14:07:38.218Z,23.65
2023-04-10T14:10:07.047Z,11.80
2023-04-10T14:12:36.078Z,15.00
2023-04-10T14:15:05.370Z,13.00
2023-04-10T14:17:32.461Z,10.07
2023-04-10T14:19:59.405Z,12.45
2023-04-10T14:22:26.390Z,12.60
2023-04-10T14:25:01.664Z,52.22
2023-04-10T14:30:04.428Z,12.63
2023-04-10T14:32:31.730Z,17.23
2023-04-10T14:34:58.768Z,10.13
2023-04-10T14:37:25.939Z,9.68
2023-04-10T14:39:53.109Z,27.33
2023-04-10T14:42:20.247Z,12.93
2023-04-10T14:44:47.349Z,20.23
2023-04-10T14:47:14.373Z,9.68
2023-04-10T14:49:41.796Z,10.93
2023-04-10T14:52:09.428Z,11.13
2023-04-10T14:54:36.489Z,12.45
2023-04-10T14:57:04.385Z,22.60
2023-04-10T14:59:31.809Z,16.52
2023-04-10T15:02:00.643Z,28.13
2023-04-10T15:04:28.415Z,19.45
2023-04-10T15:06:55.664Z,34.72
2023-04-10T15:09:23.175Z,15.13
2023-04-10T15:11:50.501Z,13.15
2023-04-10T15:14:17.464Z,13.82
2023-04-10T15:16:44.488Z,9.57
2023-04-10T15:19:11.670Z,16.08
2023-04-10T15:21:38.851Z,14.73
2023-04-10T15:24:06.310Z,22.67
2023-04-10T15:26:34.533Z,14.02
2023-04-10T15:29:01.749Z,11.98
2023-04-10T15:31:30.262Z,12.27
2023-04-10T15:33:57.348Z,10.95
2023-04-10T15:36:24.343Z,13.18
2023-04-10T15:38:51.381Z,12.73
2023-04-10T15:41:18.784Z,24.08
2023-04-10T15:43:47.738Z,16.05
2023-04-10T15:46:18.140Z,18.52
2023-04-10T15:48:48.308Z,42.20
2023-04-10T15:51:15.548Z,14.48
2023-04-10T15:53:42.583Z,23.95
2023-04-10T15:56:09.980Z,12.95
2023-04-10T15:58:37.023Z,17.00
2023-04-10T16:01:04.526Z,19.15
2023-04-10T16:03:31.723Z,30.88
2023-04-10T16:05:58.780Z,18.65
2023-04-10T16:08:27.586Z,41.63
2023-04-10T16:10:55.791Z,34.15
2023-04-10T16:13:22.999Z,17.35
2023-04-10T16:15:50.598Z,13.35
2023-04-10T16:18:18.274Z,16.27
2023-04-10T16:20:45.360Z,17.83
2023-04-10T16:23:12.399Z,10.57
2023-04-10T16:25:39.386Z,15.85
2023-04-10T16:28:08.254Z,10.43
2023-04-10T16:30:36.354Z,10.98
2023-04-10T16:33:04.380Z,10.70
2023-04-10T16:35:32.002Z,10.50
2023-04-10T16:37:59.716Z,14.13
2023-04-10T16:40:33.004Z,12.27
2023-04-10T16:43:02.168Z,12.43
2023-04-10T16:45:29.516Z,11.90
2023-04-10T16:47:56.686Z,12.18
2023-04-10T16:50:24.102Z,10.27
2023-04-10T16:52:51.115Z,15.15
2023-04-10T16:55:18.446Z,11.65
2023-04-10T16:57:46.755Z,13.02
2023-04-10T17:00:14.539Z,12.52
2023-04-10T17:02:43.279Z,13.43
2023-04-10T17:05:11.384Z,12.43
2023-04-10T17:07:38.411Z,15.38
2023-04-10T17:10:06.243Z,15.50
2023-04-10T17:12:33.396Z,12.02
2023-04-10T17:15:00.900Z,14.35
2023-04-10T17:17:28.403Z,12.98
2023-04-10T17:19:55.805Z,14.38
2023-04-10T17:22:23.509Z,13.20
2023-04-10T17:24:50.709Z,16.50
2023-04-10T17:27:17.863Z,19.95
2023-04-10T17:29:45.967Z,17.23
2023-04-10T17:32:13.249Z,28.65
2023-04-10T17:34:40.579Z,46.15
2023-04-10T17:37:09.090Z,43.38
2023-04-10T17:39:36.361Z,32.55
2023-04-10T17:42:03.987Z,16.10
2023-04-10T17:44:32.475Z,18.02
2023-04-10T17:46:59.886Z,14.57
2023-04-10T17:49:27.615Z,15.73
2023-04-10T17:51:55.086Z,23.10
2023-04-10T17:54:22.080Z,23.83
2023-04-10T17:56:52.275Z,22.88
2023-04-10T17:59:19.971Z,17.85
2023-04-10T18:01:47.139Z,19.10
2023-04-10T18:04:14.702Z,23.70
2023-04-10T18:06:41.929Z,29.00
2023-04-10T18:09:09.387Z,31.60
2023-04-10T18:11:39.912Z,28.23
2023-04-10T18:14:09.721Z,22.45
2023-04-10T18:16:36.732Z,18.27
2023-04-10T18:19:03.821Z,17.98
2023-04-10T18:21:31.666Z,17.75
2023-04-10T18:23:58.679Z,19.90
2023-04-10T18:26:25.884Z,24.38
2023-04-10T18:28:53.381Z,18.50
2023-04-10T18:31:20.721Z,20.90
2023-04-10T18:33:56.228Z,19.85
2023-04-10T18:36:31.512Z,19.63
2023-04-10T18:38:58.787Z,22.45
2023-04-10T18:41:25.825Z,21.77
2023-04-10T18:44:01.734Z,22.95
2023-04-10T18:46:32.704Z,18.60
2023-04-10T18:49:01.276Z,21.33
2023-04-10T18:51:28.648Z,16.60
2023-04-10T18:53:56.078Z,22.92
2023-04-10T18:56:23.382Z,19.95
2023-04-10T18:58:50.736Z,17.33
2023-04-10T19:01:18.022Z,17.23
2023-04-10T19:03:48.436Z,21.38
2023-04-10T19:06:23.977Z,18.13
2023-04-10T19:08:52.025Z,17.75
2023-04-10T19:11:19.161Z,19.65
2023-04-10T19:13:46.232Z,17.40
2023-04-10T19:16:14.784Z,13.77
2023-04-10T19:18:41.975Z,15.07
2023-04-10T19:21:09.111Z,19.60
2023-04-10T19:23:36.131Z,17.90
2023-04-10T19:26:03.695Z,16.92
2023-04-10T19:28:30.968Z,14.52
2023-04-10T19:30:58.096Z,15.52
2023-04-10T19:33:25.452Z,14.43
2023-04-10T19:35:52.920Z,16.45
2023-04-10T19:38:22.376Z,15.50
2023-04-10T19:40:52.314Z,25.35
2023-04-10T19:43:19.909Z,20.00
2023-04-10T19:45:47.093Z,17.38
2023-04-10T19:48:15.944Z,15.55
2023-04-10T19:50:43.006Z,14.57
2023-04-10T19:53:14.474Z,14.15
2023-04-10T19:55:41.841Z,13.98
2023-04-10T19:58:13.410Z,15.30
2023-04-10T20:00:48.004Z,17.00
2023-04-10T20:03:16.892Z,15.00
2023-04-10T20:05:44.610Z,13.63
2023-04-10T20:08:11.695Z,17.02
2023-04-10T20:10:38.699Z,25.45
2023-04-10T20:13:05.760Z,31.38
2023-04-10T20:15:32.842Z,18.80
2023-04-10T20:17:59.816Z,20.52
2023-04-10T20:20:26.959Z,16.25
2023-04-10T20:22:54.234Z,18.52
2023-04-10T20:25:21.295Z,15.60
2023-04-10T20:27:48.340Z,14.32
2023-04-10T20:30:15.884Z,14.95
2023-04-10T20:32:43.051Z,16.38
2023-04-10T20:35:10.631Z,18.15
2023-04-10T20:37:37.793Z,16.05
2023-04-10T20:40:06.015Z,16.90
2023-04-10T20:42:33.036Z,20.85
2023-04-10T20:45:00.114Z,17.58
2023-04-10T20:47:28.650Z,21.20
2023-04-10T20:49:55.824Z,22.55
2023-04-10T20:52:23.044Z,19.02
2023-04-10T20:54:50.114Z,19.45
2023-04-10T20:57:17.189Z,21.42
2023-04-10T20:59:45.857Z,18.95
2023-04-10T21:02:13.351Z,20.17
2023-04-10T21:04:40.594Z,18.83
2023-04-10T21:07:07.679Z,22.35
2023-04-10T21:09:34.797Z,22.00
2023-04-10T21:12:02.269Z,22.95
2023-04-10T21:14:29.412Z,25.73
2023-04-10T21:16:56.871Z,25.83
2023-04-10T21:19:23.976Z,27.83
2023-04-10T21:21:51.108Z,27.08
2023-04-10T21:24:18.279Z,28.38
2023-04-10T21:26:45.745Z,23.63
2023-04-10T21:29:12.835Z,21.92
2023-04-10T21:31:39.968Z,25.90
2023-04-10T21:34:07.392Z,21.95
2023-04-10T21:36:34.932Z,26.55
2023-04-10T21:39:01.953Z,21.00
2023-04-10T21:41:29.008Z,20.98
2023-04-10T21:44:00.248Z,17.02
2023-04-10T21:46:27.426Z,18.42
2023-04-10T21:48:54.816Z,18.88
2023-04-10T21:51:26.930Z,19.73
2023-04-10T21:54:00.935Z,20.63
2023-04-10T21:56:28.233Z,20.52
2023-04-10T21:58:55.583Z,17.63
2023-04-10T22:01:23.182Z,18.45
2023-04-10T22:03:50.925Z,18.60
2023-04-10T22:06:18.200Z,19.13
2023-04-10T22:08:45.290Z,20.27
2023-04-10T22:11:12.419Z,19.05
2023-04-10T22:13:39.930Z,22.92
2023-04-10T22:16:07.142Z,19.48
2023-04-10T22:18:34.392Z,20.42
2023-04-10T22:21:01.425Z,24.73
2023-04-10T22:23:28.439Z,22.20
2023-04-10T22:25:55.477Z,20.63
2023-04-10T22:28:22.659Z,20.83
2023-04-10T22:30:49.635Z,20.83
2023-04-10T22:33:16.757Z,18.92
2023-04-10T22:35:44.183Z,22.20
2023-04-10T22:38:11.334Z,22.73
2023-04-10T22:40:38.373Z,20.08
2023-04-10T22:43:05.411Z,21.77
2023-04-10T22:45:32.406Z,21.85
2023-04-10T22:47:59.419Z,22.83
2023-04-10T22:50:26.469Z,21.42
2023-04-10T22:52:53.689Z,24.70
2023-04-10T22:55:20.722Z,26.58
2023-04-10T22:57:49.450Z,24.00
2023-04-10T23:00:16.728Z,24.65
2023-04-10T23:02:43.949Z,21.35
2023-04-10T23:05:11.057Z,24.05
2023-04-10T23:07:41.210Z,30.67
2023-04-10T23:10:09.086Z,20.92
2023-04-10T23:12:36.249Z,22.27
2023-04-10T23:15:04.560Z,23.25
2023-04-10T23:17:31.710Z,27.33
2023-04-10T23:19:58.728Z,23.88
2023-04-10T23:22:25.792Z,24.35
2023-04-10T23:24:56.546Z,23.15
2023-04-10T23:27:24.283Z,24.88
2023-04-10T23:29:51.421Z,22.10
2023-04-10T23:32:18.486Z,21.92
2023-04-10T23:34:45.512Z,21.98
2023-04-10T23:37:12.559Z,21.90
2023-04-10T23:39:40.097Z,22.67
2023-04-10T23:42:07.301Z,21.50
2023-04-10T23:44:34.550Z,23.10
2023-04-10T23:47:02.267Z,21.60
2023-04-10T23:49:29.751Z,21.95
2023-04-10T23:51:56.794Z,22.65
2023-04-10T23:54:23.744Z,22.13
2023-04-10T23:56:50.658Z,24.35
2023-04-10T23:59:19.213Z,21.63
